Historique des stations

Station météo de Saint-Pierre-de-Jards







Données météorologiques pour le 21/04/2021
Date
Heure
Températures Humidité Point de rosée Vitesse
du vent
Direction Rafales Windchill Pression Pluviométrie
Cumul
Date
Heure
Températures Humidité Point de rosée Vitesse
du vent
Direction Rafales Windchill Pression Pluviométrie
Cumul
21/04/2021 21:4611.5 °C75.0 %7.2 °C1 km/hENE2 km/h11.51015 hPa0.0 mm
21/04/2021 21:3112.3 °C73.0 %7.6 °C2 km/hNE2 km/h12.31015 hPa0.0 mm
21/04/2021 21:1613.0 °C72.0 %8.1 °C2 km/hNE3 km/h12.81015 hPa0.0 mm
21/04/2021 21:0113.5 °C71.0 %8.3 °C1 km/hNE2 km/h13.41015 hPa0.0 mm
21/04/2021 20:4613.8 °C70.0 %8.4 °C1 km/hNNE2 km/h13.81015 hPa0.0 mm
21/04/2021 20:3114.4 °C69.0 %8.8 °C4 km/hNE6 km/h14.51015 hPa0.0 mm
21/04/2021 20:1615.6 °C61.0 %8.1 °C6 km/hENE8 km/h14.51015 hPa0.0 mm
21/04/2021 20:0116.6 °C54.0 %7.3 °C3 km/hE5 km/h16.01014 hPa0.0 mm
21/04/2021 19:4617.2 °C52.0 %7.3 °C2 km/hE5 km/h17.01014 hPa0.0 mm
21/04/2021 19:3117.7 °C52.0 %7.7 °C2 km/hESE5 km/h17.71014 hPa0.0 mm
21/04/2021 19:1517.9 °C50.0 %7.3 °C3 km/hESE6 km/h17.61014 hPa0.0 mm
21/04/2021 19:0018.2 °C49.0 %7.3 °C3 km/hE6 km/h18.21014 hPa0.0 mm
21/04/2021 18:4518.3 °C50.0 %7.7 °C3 km/hE5 km/h18.31014 hPa0.0 mm
21/04/2021 18:3018.2 °C50.0 %7.6 °C3 km/hESE7 km/h18.21014 hPa0.0 mm
21/04/2021 18:1518.4 °C49.0 %7.5 °C3 km/hESE8 km/h18.41014 hPa0.0 mm
21/04/2021 18:0018.6 °C48.0 %7.4 °C3 km/hE6 km/h18.61014 hPa0.0 mm
21/04/2021 17:4518.6 °C49.0 %7.7 °C4 km/hE7 km/h18.41014 hPa0.0 mm
21/04/2021 17:3018.5 °C50.0 %7.9 °C3 km/hESE7 km/h18.31014 hPa0.0 mm
21/04/2021 17:1518.6 °C49.0 %7.7 °C4 km/hESE7 km/h18.61014 hPa0.0 mm
21/04/2021 17:0018.6 °C48.0 %7.4 °C4 km/hE7 km/h18.61014 hPa0.0 mm
21/04/2021 16:4518.6 °C50.0 %8.0 °C5 km/hE9 km/h18.61014 hPa0.0 mm
21/04/2021 16:2918.2 °C46.0 %6.4 °C6 km/hE10 km/h17.71014 hPa0.0 mm
21/04/2021 16:1418.5 °C47.0 %7.0 °C5 km/hE9 km/h18.01014 hPa0.0 mm
21/04/2021 15:5918.3 °C51.0 %8.0 °C5 km/hESE8 km/h18.31014 hPa0.0 mm
21/04/2021 15:4418.3 °C47.0 %6.8 °C6 km/hE9 km/h18.11014 hPa0.0 mm
21/04/2021 15:2918.1 °C50.0 %7.5 °C5 km/hE7 km/h17.81014 hPa0.0 mm
21/04/2021 15:1418.1 °C49.0 %7.2 °C5 km/hE8 km/h17.51015 hPa0.0 mm
21/04/2021 14:5917.8 °C53.0 %8.1 °C5 km/hE10 km/h17.41015 hPa0.0 mm
21/04/2021 14:4417.7 °C55.0 %8.5 °C4 km/hESE7 km/h17.21015 hPa0.0 mm
21/04/2021 14:2917.6 °C56.0 %8.7 °C4 km/hE8 km/h17.11015 hPa0.0 mm
21/04/2021 14:1417.2 °C55.0 %8.1 °C5 km/hE8 km/h16.31015 hPa0.0 mm
21/04/2021 13:5817.2 °C55.0 %8.1 °C5 km/hESE8 km/h16.71015 hPa0.0 mm
21/04/2021 13:4317.3 °C59.0 %9.2 °C4 km/hESE7 km/h17.11015 hPa0.0 mm
21/04/2021 13:2817.2 °C58.0 %8.9 °C5 km/hE8 km/h17.01015 hPa0.0 mm
21/04/2021 13:1316.8 °C56.0 %8.0 °C5 km/hE9 km/h16.21015 hPa0.0 mm
21/04/2021 12:5816.8 °C58.0 %8.5 °C5 km/hE8 km/h15.81015 hPa0.0 mm
21/04/2021 12:4316.7 °C59.0 %8.6 °C4 km/hE7 km/h16.51015 hPa0.0 mm
21/04/2021 12:2816.5 °C62.0 %9.2 °C4 km/hE6 km/h15.81015 hPa0.0 mm
21/04/2021 12:1316.0 °C60.0 %8.2 °C4 km/hE6 km/h15.21015 hPa0.0 mm
21/04/2021 11:0815.7 °C62.0 %8.4 °C3 km/hE5 km/h15.71015 hPa0.0 mm
21/04/2021 11:0315.4 °C63.0 %8.4 °C2 km/hESE5 km/h14.61015 hPa0.0 mm
21/04/2021 10:0714.4 °C71.0 %9.2 °C1 km/hE2 km/h14.41015 hPa0.0 mm
21/04/2021 10:0213.6 °C74.0 %9.1 °C1 km/hENE2 km/h13.51015 hPa0.0 mm
21/04/2021 09:0710.3 °C85.0 %7.9 °C---10.31015 hPa0.0 mm
21/04/2021 09:028.9 °C87.0 %6.9 °C---8.91015 hPa0.0 mm
21/04/2021 08:077.7 °C87.0 %5.7 °C---7.71015 hPa0.0 mm
21/04/2021 08:065.3 °C87.0 %3.3 °C---5.31015 hPa0.0 mm
21/04/2021 08:026.6 °C87.0 %4.6 °C---6.61015 hPa0.0 mm
21/04/2021 08:013.9 °C87.0 %1.9 °C---3.91015 hPa0.0 mm
21/04/2021 07:061.9 °C87.0 %0.0 °C---1.91015 hPa0.0 mm
21/04/2021 07:011.9 °C87.0 %0.0 °C---1.91014 hPa0.0 mm
21/04/2021 06:062.7 °C87.0 %0.8 °C---2.71014 hPa0.0 mm
21/04/2021 06:013.2 °C87.0 %1.2 °C-ESE1 km/h3.21014 hPa0.0 mm
21/04/2021 05:062.9 °C87.0 %1.0 °C---2.91014 hPa0.0 mm
21/04/2021 05:053.3 °C87.0 %1.3 °C---3.31014 hPa0.0 mm
21/04/2021 05:013.1 °C87.0 %1.1 °C---3.11014 hPa0.0 mm
21/04/2021 05:003.5 °C87.0 %1.5 °C---3.51014 hPa0.0 mm
21/04/2021 04:054.0 °C87.0 %2.0 °C---4.01015 hPa0.0 mm
21/04/2021 04:004.2 °C87.0 %2.2 °C---4.21014 hPa0.0 mm
21/04/2021 03:054.7 °C87.0 %2.7 °C---4.71015 hPa0.0 mm
21/04/2021 03:004.7 °C87.0 %2.7 °C---4.71015 hPa0.0 mm
21/04/2021 02:095.8 °C87.0 %3.8 °C---5.81015 hPa0.0 mm
21/04/2021 02:045.8 °C86.0 %3.6 °C---5.81015 hPa0.0 mm
21/04/2021 01:595.6 °C86.0 %3.4 °C-ESE1 km/h5.61015 hPa0.0 mm
21/04/2021 01:445.9 °C85.0 %3.6 °C1 km/hE2 km/h5.91015 hPa0.0 mm
21/04/2021 01:296.7 °C84.0 %4.2 °C-ESE1 km/h6.71015 hPa0.0 mm
21/04/2021 01:147.7 °C83.0 %5.0 °C1 km/hO1 km/h7.71015 hPa0.0 mm
21/04/2021 00:597.9 °C84.0 %5.4 °C1 km/hO2 km/h6.91015 hPa0.0 mm
21/04/2021 00:448.2 °C83.0 %5.5 °C1 km/hO2 km/h8.21015 hPa0.0 mm
21/04/2021 00:297.7 °C84.0 %5.2 °C1 km/hSSO3 km/h7.71015 hPa0.0 mm
21/04/2021 00:148.0 °C83.0 %5.3 °C1 km/hO3 km/h8.11015 hPa0.0 mm


Minima :

Température : 1.9 °C
Humidité : 46.0 %
Point de rosée : 0.0 °C
Vent moyen : 1 km/h
Windchill : 1.9
Pression atm. : 1014 hPa
Maxima :

Température : 18.6 °C
Humidité : 87.0 %
Point de rosée : 9.2 °C
Vent moyen : 6 km/h
Windchill : 18.6
Pression atm. : 1015 hPa
Rafales max : 10 km/h
Cumul de pluie sur 24H : 0 mm

Saint-Pierre-de-Jards est une commune du département Indre (36).
La station météorologique du réseau de l'association la plus proche de Saint-Pierre-de-Jards est celle de Luçay-le-Libre



Icône Facebook Association Météo Centre Icône Twitter Association Météo Centre Icône Chaîne Youtube Association Météo Centre Icône contact Association Météo Centre Icône Insta Association Météo Centre